Terminal Aerodrome Forecast
Issued by NWS

Home | Current Version | Previous Version | Text Only | Print | Product List | Glossary On
Versions: 1 2 3 4 5 6 7 8 9 10 11 12 13 14 15 16 17 18 19 20 21 22 23 24 25 26 27
284
FTUS46 KLOX 252326
TAFLAX
TAF
KLAX 252326Z 2600/2706 26012KT P6SM SCT200 WS010/03025KT
     FM260400 VRB03KT P6SM SKC
     FM260900 07005KT P6SM SKC
     FM261600 VRB03KT P6SM SKC
     FM261900 25012KT P6SM SKC
     FM270300 VRB03KT P6SM SKC=

USA.gov is the U.S. government's official web portal to all federal, state and local government web resources and services.